Time;durP1;ratioP1;P1;durP2;ratioP2;P2;SDS_P1;SDS_P2;PMS_P1;PMS_P2;Temp;Humidity;BMP_temperature;BMP_pressure;BME280_temperature;BME280_humidity;BME280_pressure;Samples;Min_cycle;Max_cycle;Signal;HPM_P1;HPM_P2
2022/05/17 05:06:37;;;;;;;;;;;;;;;14.58;80.02;100399.06;1081938;54;19943;-81
2022/05/17 05:07:45;;;;;;;;;;;;;;;14.63;79.51;100396.75;1088409;54;19935;-84
2022/05/17 05:08:49;;;;;;;;;;;;;;;14.71;79.25;100391.41;1088600;54;19934;-86
2022/05/17 05:10:03;;;;;;;;;;;;;;;14.70;79.32;100395.13;1088605;54;19962;-83
2022/05/17 05:11:07;;;;;;;;;;;;;;;14.83;79.02;100394.63;1089248;46;19999;-82
2022/05/17 05:12:09;;;;;;;;;;;;;;;14.95;78.48;100395.16;1088603;54;19934;-83
2022/05/17 05:15:51;;;;;;;;;;;;;;;15.22;77.13;100385.09;1087157;54;20946;-84
2022/05/17 05:16:52;;;;;;;;;;;;;;;15.29;76.72;100378.91;1093266;46;19919;-85
2022/05/17 05:18:22;;;;;;;;;;;;;;;15.34;76.51;100378.38;1088727;46;19954;-85
2022/05/17 05:34:04;;;;;;;;;;;;;;;15.82;74.90;100396.56;1088959;47;19951;-84
2022/05/17 05:49:32;;;;;;;;;;;;;;;16.02;75.58;100402.44;1087698;54;21972;-83
2022/05/17 05:50:33;;;;;;;;;;;;;;;16.05;75.20;100405.66;1088302;54;19968;-83
2022/05/17 05:56:55;;;;;;;;;;;;;;;16.41;74.80;100407.03;1090192;39;20196;-84
2022/05/17 05:57:56;;;;;;;;;;;;;;;16.46;74.40;100406.53;1088948;54;19947;-85
2022/05/17 06:26:33;;;;;;;;;;;;;;;17.84;69.93;100396.00;1088542;54;19927;-85
2022/05/17 06:45:39;;;;;;;;;;;;;;;18.59;68.09;100406.88;1088764;54;19946;-85
2022/05/17 06:46:41;;;;;;;;;;;;;;;18.70;67.84;100392.88;1093159;46;20683;-86
2022/05/17 06:47:46;;;;;;;;;;;;;;;18.78;67.31;100395.47;1105118;39;20530;-86
2022/05/17 06:48:47;;;;;;;;;;;;;;;18.85;67.13;100396.38;1088658;54;19934;-84
2022/05/17 06:53:32;;;;;;;;;;;;;;;19.10;65.97;100403.34;1089031;54;19998;-87
2022/05/17 06:54:35;;;;;;;;;;;;;;;19.02;65.77;100398.88;1088485;54;19950;-88
2022/05/17 06:56:42;;;;;;;;;;;;;;;18.94;66.45;100396.28;1089159;54;19944;-85
2022/05/17 06:58:49;;;;;;;;;;;;;;;19.07;65.97;100396.44;1088499;54;19922;-86
2022/05/17 06:59:53;;;;;;;;;;;;;;;19.24;65.54;100391.59;1088860;54;19934;-87
2022/05/17 07:05:24;;;;;;;;;;;;;;;19.31;65.05;100381.66;1088629;54;19972;-88
2022/05/17 07:06:25;;;;;;;;;;;;;;;19.43;64.88;100384.69;1088717;54;19927;-87
2022/05/17 07:07:30;;;;;;;;;;;;;;;19.61;64.42;100389.63;1088530;54;19935;-86
2022/05/17 07:09:37;;;;;;;;;;;;;;;19.43;64.15;100389.25;1088701;54;19935;-87
2022/05/17 07:14:54;;;;;;;;;;;;;;;19.56;63.37;100394.81;1088436;54;19939;-90
2022/05/17 07:17:01;;;;;;;;;;;;;;;19.60;62.65;100393.34;1088521;54;19949;-84
2022/05/17 07:18:02;;;;;;;;;;;;;;;19.66;62.71;100397.16;1088432;54;19927;-82
2022/05/17 07:19:06;;;;;;;;;;;;;;;19.73;62.57;100398.06;1088447;54;19931;-83
2022/05/17 07:20:08;;;;;;;;;;;;;;;20.02;61.97;100392.66;1088410;54;19954;-86
2022/05/17 07:21:14;;;;;;;;;;;;;;;20.18;61.07;100386.09;1088431;54;19950;-82
2022/05/17 07:22:16;;;;;;;;;;;;;;;20.12;61.33;100389.63;1088379;54;19934;-79
2022/05/17 07:23:21;;;;;;;;;;;;;;;20.15;61.23;100390.03;1088480;54;19934;-81
2022/05/17 07:24:24;;;;;;;;;;;;;;;20.13;60.90;100394.81;1088513;46;19942;-82
2022/05/17 07:25:25;;;;;;;;;;;;;;;20.17;60.75;100392.56;1088434;54;19927;-84
2022/05/17 07:26:29;;;;;;;;;;;;;;;20.15;60.19;100392.75;1088398;54;19950;-83
2022/05/17 07:27:31;;;;;;;;;;;;;;;20.21;59.87;100388.41;1088403;54;19942;-83
2022/05/17 07:28:34;;;;;;;;;;;;;;;20.36;59.49;100394.53;1088418;54;19927;-83
2022/05/17 07:29:36;;;;;;;;;;;;;;;20.62;59.24;100389.44;1088385;54;19952;-81
2022/05/17 07:30:40;;;;;;;;;;;;;;;20.86;58.77;100388.09;1087965;54;19942;-83
2022/05/17 07:31:41;;;;;;;;;;;;;;;21.06;58.04;100390.84;1088108;54;19942;-79
2022/05/17 07:32:45;;;;;;;;;;;;;;;21.19;57.67;100388.16;1088377;54;19952;-83
2022/05/17 07:33:49;;;;;;;;;;;;;;;21.29;57.08;100387.75;1088410;54;19950;-84
2022/05/17 07:34:50;;;;;;;;;;;;;;;21.13;57.48;100399.03;1088863;46;19927;-81
2022/05/17 07:35:54;;;;;;;;;;;;;;;21.04;57.57;100385.63;1088403;54;19949;-83
2022/05/17 07:36:58;;;;;;;;;;;;;;;21.07;57.89;100394.38;1088428;54;19998;-81
2022/05/17 07:38:02;;;;;;;;;;;;;;;21.26;58.00;100392.78;1088388;54;19939;-82
2022/05/17 07:39:07;;;;;;;;;;;;;;;21.33;57.27;100393.59;1088359;54;19958;-83
2022/05/17 07:40:10;;;;;;;;;;;;;;;21.46;57.47;100393.63;1088295;54;19942;-82
2022/05/17 07:41:13;;;;;;;;;;;;;;;21.55;56.68;100388.81;1088431;54;19943;-83
2022/05/17 07:42:15;;;;;;;;;;;;;;;21.47;56.66;100391.75;1088393;54;19950;-82
2022/05/17 07:43:19;;;;;;;;;;;;;;;21.55;56.49;100388.81;1088410;54;19983;-84
2022/05/17 07:44:20;;;;;;;;;;;;;;;21.69;55.40;100391.56;1088354;54;19935;-81
2022/05/17 07:45:24;;;;;;;;;;;;;;;21.46;55.83;100382.75;1088366;54;19950;-81
2022/05/17 07:46:25;;;;;;;;;;;;;;;21.46;55.70;100384.63;1088381;54;19958;-82
2022/05/17 07:47:29;;;;;;;;;;;;;;;21.63;55.44;100391.34;1088073;54;19945;-84
2022/05/17 07:48:33;;;;;;;;;;;;;;;21.68;54.37;100392.63;1089344;39;20618;-83
2022/05/17 07:49:38;;;;;;;;;;;;;;;21.87;54.07;100388.22;1088321;54;19963;-84
2022/05/17 07:50:39;;;;;;;;;;;;;;;21.99;53.61;100389.22;1088347;54;19967;-82
2022/05/17 07:51:43;;;;;;;;;;;;;;;22.19;53.47;100383.75;1088384;54;19990;-82
2022/05/17 07:52:47;;;;;;;;;;;;;;;22.32;53.51;100384.75;1088380;54;19939;-84
2022/05/17 07:53:51;;;;;;;;;;;;;;;22.39;51.39;100378.25;1088344;54;19942;-83
2022/05/17 07:54:52;;;;;;;;;;;;;;;22.50;52.05;100376.75;1088378;54;20870;-82
2022/05/17 07:55:56;;;;;;;;;;;;;;;22.52;51.58;100380.09;1088329;54;20006;-79
2022/05/17 07:56:57;;;;;;;;;;;;;;;22.59;51.70;100386.34;1089636;46;19943;-82
2022/05/17 07:58:01;;;;;;;;;;;;;;;22.59;51.36;100378.19;1088390;54;19949;-84
2022/05/17 07:59:05;;;;;;;;;;;;;;;22.83;51.43;100381.22;1088359;54;19946;-84
2022/05/17 08:00:09;;;;;;;;;;;;;;;22.90;50.61;100375.75;1088373;54;19946;-79
2022/05/17 08:01:13;;;;;;;;;;;;;;;22.80;50.23;100376.19;1088372;54;20634;-83
2022/05/17 08:02:14;;;;;;;;;;;;;;;23.01;50.75;100382.38;1088410;54;19943;-82
2022/05/17 08:03:18;;;;;;;;;;;;;;;23.13;50.08;100379.78;1088353;54;20640;-81
2022/05/17 08:04:19;;;;;;;;;;;;;;;23.21;50.65;100382.25;1089955;39;20068;-81
2022/05/17 08:05:23;;;;;;;;;;;;;;;23.39;50.34;100386.97;1091414;31;20696;-82
2022/05/17 08:06:27;;;;;;;;;;;;;;;23.50;49.79;100369.91;1088411;54;19943;-81
2022/05/17 08:07:31;;;;;;;;;;;;;;;23.66;49.02;100373.09;1088364;54;20609;-81
2022/05/17 08:08:37;;;;;;;;;;;;;;;23.71;48.66;100370.53;1088365;54;20622;-83
2022/05/17 08:09:38;;;;;;;;;;;;;;;23.39;48.17;100373.34;1088364;54;20831;-81
2022/05/17 08:10:43;;;;;;;;;;;;;;;23.23;48.32;100384.78;1088349;54;19943;-84
2022/05/17 08:11:44;;;;;;;;;;;;;;;22.96;48.92;100382.19;1088379;54;20681;-83
2022/05/17 08:12:48;;;;;;;;;;;;;;;22.99;49.26;100384.47;1088414;54;19982;-82
2022/05/17 08:13:52;;;;;;;;;;;;;;;23.28;48.52;100376.78;1088721;46;19938;-81
2022/05/17 08:14:53;;;;;;;;;;;;;;;23.14;48.38;100382.31;1088367;54;20522;-81
2022/05/17 08:15:57;;;;;;;;;;;;;;;22.90;49.40;100381.19;1088368;54;19942;-83
2022/05/17 08:16:58;;;;;;;;;;;;;;;22.93;49.78;100375.28;1089798;46;19945;-83
2022/05/17 08:18:02;;;;;;;;;;;;;;;23.14;49.12;100371.41;1088373;54;19942;-80
2022/05/17 08:19:04;;;;;;;;;;;;;;;23.24;49.07;100370.09;1088372;54;20590;-82
2022/05/17 08:20:09;;;;;;;;;;;;;;;23.15;49.01;100381.22;1088378;54;19934;-82
2022/05/17 08:21:10;;;;;;;;;;;;;;;23.45;48.72;100366.97;1089401;39;20580;-81
2022/05/17 08:22:15;;;;;;;;;;;;;;;23.56;47.68;100360.00;1088137;54;19943;-82
2022/05/17 08:23:19;;;;;;;;;;;;;;;23.39;47.94;100372.47;1088379;54;19967;-83
2022/05/17 08:24:23;;;;;;;;;;;;;;;23.70;47.40;100370.75;1088348;54;20042;-85
2022/05/17 08:27:59;;;;;;;;;;;;;;;23.67;47.07;100363.88;1088390;54;19938;-81
2022/05/17 08:29:00;;;;;;;;;;;;;;;23.62;47.32;100363.69;1088345;54;19938;-81
2022/05/17 08:30:05;;;;;;;;;;;;;;;23.56;47.29;100361.88;1088356;54;19927;-83
2022/05/17 08:31:10;;;;;;;;;;;;;;;23.36;47.40;100373.78;1088320;54;19942;-83
2022/05/17 08:33:30;;;;;;;;;;;;;;;23.56;47.53;100367.31;1088392;54;19938;-80
2022/05/17 08:34:31;;;;;;;;;;;;;;;23.75;47.25;100366.31;1088337;54;19943;-82
2022/05/17 08:35:38;;;;;;;;;;;;;;;24.11;46.36;100361.16;1093405;39;20526;-79
2022/05/17 08:36:42;;;;;;;;;;;;;;;24.24;45.72;100362.91;1088380;54;19927;-86
2022/05/17 08:37:43;;;;;;;;;;;;;;;24.42;45.35;100367.50;1087959;54;19934;-85
2022/05/17 08:38:48;;;;;;;;;;;;;;;24.12;45.48;100371.84;1088164;54;19999;-80
2022/05/17 08:39:52;;;;;;;;;;;;;;;23.84;45.00;100364.13;1088409;54;19943;-79
2022/05/17 08:40:57;;;;;;;;;;;;;;;23.96;45.21;100362.34;1088328;54;19942;-82
2022/05/17 08:42:05;;;;;;;;;;;;;;;24.24;44.53;100362.91;1088403;54;19938;-86
2022/05/17 08:43:11;;;;;;;;;;;;;;;24.41;44.34;100358.47;1088451;54;19949;-86
2022/05/17 08:44:16;;;;;;;;;;;;;;;24.55;42.66;100358.31;1088394;54;19950;-85
2022/05/17 08:45:24;;;;;;;;;;;;;;;24.05;43.37;100362.03;1088434;54;19943;-85
2022/05/17 08:46:45;;;;;;;;;;;;;;;24.12;43.41;100366.38;1088389;54;19943;-85
2022/05/17 08:47:50;;;;;;;;;;;;;;;24.51;43.11;100357.09;1088428;54;19942;-84
2022/05/17 08:48:55;;;;;;;;;;;;;;;24.68;43.02;100358.16;1088416;54;19990;-78
2022/05/17 08:50:02;;;;;;;;;;;;;;;24.58;42.80;100355.13;1088384;54;19926;-79
2022/05/17 08:51:06;;;;;;;;;;;;;;;24.62;41.86;100356.34;1088322;54;19943;-83
2022/05/17 08:52:13;;;;;;;;;;;;;;;24.73;42.09;100360.22;1092849;39;20442;-81
2022/05/17 08:53:19;;;;;;;;;;;;;;;24.90;42.22;100354.94;1090174;46;19931;-80
2022/05/17 08:54:27;;;;;;;;;;;;;;;24.95;40.66;100359.69;1087955;54;19934;-84
2022/05/17 08:55:36;;;;;;;;;;;;;;;24.63;41.40;100357.16;1088098;47;20328;-79
2022/05/17 08:56:41;;;;;;;;;;;;;;;24.59;41.35;100354.91;1088333;54;19954;-80
2022/05/17 08:57:46;;;;;;;;;;;;;;;24.74;41.08;100357.25;1088325;54;19983;-80
2022/05/17 08:58:52;;;;;;;;;;;;;;;25.13;40.79;100359.63;1088263;54;19943;-79
2022/05/17 08:59:53;;;;;;;;;;;;;;;25.46;40.75;100354.72;1091138;46;19969;-79
2022/05/17 09:01:01;;;;;;;;;;;;;;;25.58;39.83;100355.59;1088219;54;19931;-78
2022/05/17 09:02:09;;;;;;;;;;;;;;;25.42;40.11;100356.25;1088372;54;19923;-79
2022/05/17 09:03:22;;;;;;;;;;;;;;;25.56;39.82;100352.25;1088313;54;19967;-79
2022/05/17 09:04:34;;;;;;;;;;;;;;;25.53;39.76;100358.19;1088316;54;19942;-79
2022/05/17 09:05:40;;;;;;;;;;;;;;;25.68;39.70;100350.34;1088719;39;20710;-79
2022/05/17 09:06:46;;;;;;;;;;;;;;;25.63;39.28;100355.69;1088342;54;19942;-81
2022/05/17 09:07:53;;;;;;;;;;;;;;;25.76;39.33;100351.06;1088313;54;19943;-81
2022/05/17 09:09:00;;;;;;;;;;;;;;;25.75;39.63;100352.94;1088328;54;19938;-80
2022/05/17 09:10:03;;;;;;;;;;;;;;;25.81;39.20;100351.16;1088301;54;19951;-80
2022/05/17 09:11:17;;;;;;;;;;;;;;;25.63;39.64;100357.59;1087832;54;19966;-79
2022/05/17 09:12:25;;;;;;;;;;;;;;;26.01;39.38;100356.28;1092668;39;20514;-79
2022/05/17 09:13:31;;;;;;;;;;;;;;;26.06;38.25;100356.38;1088296;54;19950;-81
2022/05/17 09:14:37;;;;;;;;;;;;;;;25.70;38.66;100347.38;1088273;54;19994;-80
2022/05/17 09:15:42;;;;;;;;;;;;;;;25.99;38.54;100350.19;1089429;46;20609;-79
2022/05/17 09:16:47;;;;;;;;;;;;;;;25.90;38.85;100347.00;1087734;54;19950;-79
2022/05/17 09:17:51;;;;;;;;;;;;;;;25.70;39.37;100348.19;1088185;54;19943;-79
2022/05/17 09:18:54;;;;;;;;;;;;;;;25.65;39.21;100348.06;1088308;54;20586;-81
2022/05/17 09:19:56;;;;;;;;;;;;;;;25.73;39.29;100355.09;1088624;47;19963;-83
2022/05/17 09:21:00;;;;;;;;;;;;;;;25.77;38.25;100348.06;1088045;54;20465;-80
2022/05/17 09:22:02;;;;;;;;;;;;;;;25.45;38.09;100355.78;1087911;54;19926;-79
2022/05/17 09:23:06;;;;;;;;;;;;;;;25.54;38.54;100354.38;1088218;54;20027;-79
2022/05/17 09:24:10;;;;;;;;;;;;;;;25.37;38.39;100349.56;1088269;54;19923;-80
2022/05/17 09:25:20;;;;;;;;;;;;;;;25.25;38.72;100351.44;1088261;54;20616;-81
2022/05/17 09:26:27;;;;;;;;;;;;;;;25.42;39.05;100356.25;1088234;54;19927;-80
2022/05/17 09:27:32;;;;;;;;;;;;;;;25.64;38.01;100346.41;1087867;54;19990;-79
2022/05/17 09:28:49;;;;;;;;;;;;;;;25.82;38.59;100353.69;1089690;46;19950;-82
2022/05/17 09:29:56;;;;;;;;;;;;;;;25.79;38.25;100345.94;1088267;54;19934;-81
2022/05/17 09:31:09;;;;;;;;;;;;;;;26.10;37.77;100340.31;1088019;54;19945;-82
2022/05/17 09:32:11;;;;;;;;;;;;;;;26.39;38.00;100348.59;1088308;54;19970;-82
2022/05/17 09:33:17;;;;;;;;;;;;;;;26.49;37.34;100337.03;1088294;54;19945;-79
2022/05/17 09:34:28;;;;;;;;;;;;;;;26.55;36.90;100339.59;1089156;39;20458;-80
2022/05/17 09:35:30;;;;;;;;;;;;;;;26.30;36.78;100342.69;1088174;54;20625;-78
2022/05/17 09:36:42;;;;;;;;;;;;;;;26.60;37.22;100336.97;1089184;39;20593;-79
2022/05/17 09:37:44;;;;;;;;;;;;;;;26.64;36.48;100337.31;1088228;54;19943;-78
2022/05/17 09:38:49;;;;;;;;;;;;;;;26.83;36.82;100340.69;1088784;47;19942;-78
2022/05/17 09:39:52;;;;;;;;;;;;;;;26.62;36.79;100337.56;1088555;47;19949;-81
2022/05/17 09:40:56;;;;;;;;;;;;;;;26.73;36.52;100346.81;1088178;54;20002;-79
2022/05/17 09:42:00;;;;;;;;;;;;;;;26.58;36.58;100339.13;1093279;39;20181;-77
2022/05/17 09:43:07;;;;;;;;;;;;;;;26.48;36.75;100344.41;1089086;47;19943;-78
2022/05/17 09:44:12;;;;;;;;;;;;;;;26.45;36.63;100348.47;1087840;54;19938;-79
2022/05/17 09:45:17;;;;;;;;;;;;;;;26.29;36.76;100343.75;1088913;47;19939;-80
2022/05/17 09:46:27;;;;;;;;;;;;;;;26.39;36.88;100343.13;1088234;54;19966;-79
2022/05/17 09:47:33;;;;;;;;;;;;;;;26.08;36.88;100337.81;1088136;54;19954;-80
2022/05/17 09:52:32;;;;;;;;;;;;;;;26.19;37.18;100343.53;1088146;54;20492;-80
2022/05/17 09:52:45;;;;;;;;;;;;;;;26.93;35.87;100343.63;1087811;54;19942;-80
2022/05/17 09:53:47;;;;;;;;;;;;;;;27.26;35.43;100341.16;1087897;54;20008;-79
2022/05/17 09:54:51;;;;;;;;;;;;;;;27.29;35.26;100339.88;1087840;54;19942;-80
2022/05/17 09:55:58;;;;;;;;;;;;;;;27.24;35.36;100341.44;1087893;54;19942;-80
2022/05/17 09:57:16;;;;;;;;;;;;;;;27.15;35.71;100340.19;1087947;54;19984;-79
2022/05/17 09:58:32;;;;;;;;;;;;;;;27.01;35.45;100336.09;1087863;54;19978;-80
2022/05/17 09:59:33;;;;;;;;;;;;;;;26.98;35.09;100331.09;1088012;54;19983;-83
2022/05/17 10:00:41;;;;;;;;;;;;;;;26.41;35.77;100338.22;1087569;54;20033;-81
2022/05/17 10:01:45;;;;;;;;;;;;;;;25.81;36.98;100345.69;1087585;54;19994;-81
2022/05/17 10:02:52;;;;;;;;;;;;;;;26.17;36.60;100335.53;1087954;54;19943;-80
2022/05/17 10:03:58;;;;;;;;;;;;;;;26.44;36.36;100335.84;1088006;54;20692;-80
2022/05/17 10:05:03;;;;;;;;;;;;;;;26.57;35.81;100333.88;1087880;54;20646;-82
2022/05/17 10:06:08;;;;;;;;;;;;;;;26.63;35.98;100332.91;1090111;39;20876;-80
2022/05/17 10:07:11;;;;;;;;;;;;;;;26.58;35.90;100330.06;1087970;54;19939;-80
2022/05/17 10:08:32;;;;;;;;;;;;;;;26.63;35.64;100327.41;1087993;54;19942;-81
2022/05/17 10:09:36;;;;;;;;;;;;;;;26.54;35.33;100331.63;1087767;54;19942;-81
2022/05/17 10:10:43;;;;;;;;;;;;;;;26.71;35.21;100337.16;1091547;39;20237;-81
2022/05/17 10:11:52;;;;;;;;;;;;;;;26.57;34.82;100331.97;1087790;54;19934;-81
2022/05/17 10:12:59;;;;;;;;;;;;;;;26.09;34.50;100338.66;1087827;54;20002;-85
2022/05/17 10:14:09;;;;;;;;;;;;;;;25.58;35.89;100328.22;1087828;54;19943;-82
2022/05/17 10:15:11;;;;;;;;;;;;;;;26.06;35.57;100329.00;1088682;47;19943;-83
2022/05/17 10:16:17;;;;;;;;;;;;;;;26.34;35.16;100332.06;1087721;54;20650;-81
2022/05/17 10:17:33;;;;;;;;;;;;;;;26.56;34.99;100327.56;1087390;54;19950;-83
2022/05/17 10:18:40;;;;;;;;;;;;;;;26.73;35.01;100333.09;1087809;54;19981;-81
2022/05/17 10:19:47;;;;;;;;;;;;;;;26.86;35.00;100323.75;1087809;54;19942;-83
2022/05/17 10:20:50;;;;;;;;;;;;;;;26.89;34.79;100326.03;1088114;54;19942;-83
2022/05/17 10:21:56;;;;;;;;;;;;;;;26.62;34.51;100329.34;1088291;47;20004;-84
2022/05/17 10:22:59;;;;;;;;;;;;;;;26.29;34.83;100330.06;1088190;54;19942;-83
2022/05/17 10:24:07;;;;;;;;;;;;;;;26.09;34.77;100333.19;1088191;54;19958;-82
2022/05/17 10:25:13;;;;;;;;;;;;;;;26.08;35.27;100326.00;1088224;54;19922;-83
2022/05/17 10:26:15;;;;;;;;;;;;;;;26.06;34.52;100329.00;1088171;54;20668;-83
2022/05/17 10:27:22;;;;;;;;;;;;;;;26.09;34.29;100327.69;1091763;39;20507;-83
2022/05/17 10:28:35;;;;;;;;;;;;;;;26.10;34.27;100329.38;1088222;54;19927;-83
2022/05/17 10:29:45;;;;;;;;;;;;;;;26.31;33.99;100328.72;1088229;54;19976;-82
2022/05/17 10:30:48;;;;;;;;;;;;;;;26.28;34.33;100322.91;1088151;54;19927;-83
2022/05/17 10:31:56;;;;;;;;;;;;;;;26.18;33.97;100330.91;1088221;54;20024;-82
2022/05/17 10:33:00;;;;;;;;;;;;;;;26.29;34.51;100317.16;1091184;39;20483;-83
2022/05/17 10:34:11;;;;;;;;;;;;;;;26.20;33.60;100329.59;1088205;54;19923;-80
2022/05/17 10:35:19;;;;;;;;;;;;;;;26.43;34.07;100317.72;1088260;39;20462;-81
2022/05/17 10:36:23;;;;;;;;;;;;;;;26.34;33.94;100307.41;1087807;54;19934;-82
2022/05/17 10:37:30;;;;;;;;;;;;;;;26.27;33.90;100322.06;1087949;54;19938;-85
2022/05/17 10:38:36;;;;;;;;;;;;;;;26.44;33.61;100315.84;1088234;54;19952;-82
2022/05/17 10:39:44;;;;;;;;;;;;;;;26.51;33.32;100321.16;1087862;54;19947;-81
2022/05/17 10:40:49;;;;;;;;;;;;;;;26.58;33.56;100322.66;1087704;54;20645;-81
2022/05/17 10:41:50;;;;;;;;;;;;;;;26.75;33.08;100310.91;1087719;54;19970;-83
2022/05/17 10:42:54;;;;;;;;;;;;;;;26.93;32.36;100315.38;1088123;54;20002;-82
2022/05/17 10:44:01;;;;;;;;;;;;;;;27.01;31.09;100314.97;1088549;54;19934;-83
2022/05/17 10:45:02;;;;;;;;;;;;;;;27.02;31.14;100311.16;1088501;54;19950;-82
2022/05/17 10:46:10;;;;;;;;;;;;;;;26.90;29.38;100315.88;1088450;54;19933;-83
2022/05/17 10:47:16;;;;;;;;;;;;;;;26.78;29.13;100313.19;1088557;54;19929;-82
2022/05/17 10:48:27;;;;;;;;;;;;;;;26.66;29.58;100315.13;1088553;54;19935;-80
2022/05/17 10:49:36;;;;;;;;;;;;;;;26.38;30.22;100314.91;1088550;54;19943;-80
2022/05/17 10:50:45;;;;;;;;;;;;;;;26.43;30.68;100317.72;1088452;54;19926;-83
2022/05/17 10:51:51;;;;;;;;;;;;;;;26.53;30.82;100310.78;1088584;54;19939;-85
2022/05/17 10:53:06;;;;;;;;;;;;;;;26.65;30.96;100307.97;1088643;54;19990;-85
2022/05/17 10:54:15;;;;;;;;;;;;;;;26.52;31.84;100303.63;1088578;54;19934;-85
2022/05/17 10:55:20;;;;;;;;;;;;;;;26.49;32.02;100304.13;1088777;54;20682;-84
2022/05/17 10:56:32;;;;;;;;;;;;;;;26.56;31.48;100311.13;1088881;54;19927;-86
2022/05/17 10:57:37;;;;;;;;;;;;;;;26.55;30.63;100303.16;1091744;46;19998;-85
2022/05/17 10:58:49;;;;;;;;;;;;;;;26.60;30.75;100300.50;1088722;54;19935;-85
2022/05/17 11:00:00;;;;;;;;;;;;;;;26.51;31.03;100296.47;1088117;54;19943;-86
2022/05/17 11:01:07;;;;;;;;;;;;;;;26.67;30.97;100294.88;1088106;54;19943;-85
2022/05/17 11:02:18;;;;;;;;;;;;;;;26.58;31.55;100298.00;1088767;46;19962;-80
2022/05/17 11:03:37;;;;;;;;;;;;;;;26.68;31.52;100291.03;1088131;54;19969;-85
2022/05/17 11:05:02;;;;;;;;;;;;;;;26.59;32.07;100296.94;1088144;54;19967;-86
2022/05/17 11:06:13;;;;;;;;;;;;;;;26.46;32.36;100300.81;1087730;54;19967;-84
2022/05/17 11:08:25;;;;;;;;;;;;;;;26.35;32.56;100303.59;1088585;54;19934;-83
2022/05/17 11:11:43;;;;;;;;;;;;;;;26.54;33.63;100291.38;1088531;54;19926;-82
2022/05/17 11:12:51;;;;;;;;;;;;;;;26.50;33.34;100290.19;1088561;54;19943;-82
2022/05/17 11:13:58;;;;;;;;;;;;;;;26.64;33.12;100290.72;1088722;54;19949;-82
2022/05/17 11:15:05;;;;;;;;;;;;;;;26.65;32.81;100280.56;1088706;54;19946;-82
2022/05/17 11:16:09;;;;;;;;;;;;;;;26.71;32.54;100279.59;1088704;54;19923;-84
2022/05/17 11:17:25;;;;;;;;;;;;;;;26.78;32.44;100283.84;1088686;54;19947;-83
2022/05/17 11:18:33;;;;;;;;;;;;;;;26.64;32.12;100274.25;1088534;54;19987;-81
2022/05/17 11:19:40;;;;;;;;;;;;;;;26.81;32.12;100278.97;1088582;54;20610;-82
2022/05/17 11:21:52;;;;;;;;;;;;;;;26.81;32.37;100274.34;1088545;54;19942;-84
2022/05/17 11:23:01;;;;;;;;;;;;;;;26.80;31.87;100275.41;1088609;54;19927;-80
2022/05/17 11:24:14;;;;;;;;;;;;;;;26.61;32.21;100281.06;1088713;54;19931;-83
2022/05/17 11:25:28;;;;;;;;;;;;;;;26.19;32.68;100278.63;1088600;54;19923;-82
2022/05/17 11:26:45;;;;;;;;;;;;;;;26.04;33.22;100264.59;1088544;54;19994;-82
2022/05/17 11:28:00;;;;;;;;;;;;;;;25.59;32.83;100280.63;1088539;54;19943;-82
2022/05/17 11:29:12;;;;;;;;;;;;;;;25.94;33.02;100268.78;1088638;54;19943;-83
2022/05/17 11:30:21;;;;;;;;;;;;;;;26.05;32.83;100258.84;1088577;54;19963;-81
2022/05/17 11:32:29;;;;;;;;;;;;;;;25.59;33.29;100268.81;1088560;54;19949;-82
2022/05/17 11:34:42;;;;;;;;;;;;;;;25.96;32.66;100258.41;1088572;54;19930;-83
2022/05/17 11:35:48;;;;;;;;;;;;;;;26.03;32.53;100260.19;1088549;54;19949;-81
2022/05/17 11:36:53;;;;;;;;;;;;;;;26.10;32.42;100255.41;1088559;54;19943;-81
2022/05/17 11:37:55;;;;;;;;;;;;;;;26.14;32.30;100256.59;1088446;54;20226;-82
2022/05/17 11:38:58;;;;;;;;;;;;;;;26.20;32.63;100255.63;1088433;54;19942;-82
2022/05/17 11:40:00;;;;;;;;;;;;;;;26.30;32.66;100253.09;1088690;54;19939;-82
2022/05/17 11:42:09;;;;;;;;;;;;;;;26.24;32.58;100251.34;1088559;54;19978;-80
2022/05/17 11:44:29;;;;;;;;;;;;;;;26.19;32.49;100256.69;1088652;54;19943;-83
2022/05/17 11:47:52;;;;;;;;;;;;;;;26.21;32.74;100254.56;1088553;54;19927;-83
2022/05/17 11:48:54;;;;;;;;;;;;;;;26.20;32.71;100252.06;1088645;54;19982;-85
2022/05/17 11:50:22;;;;;;;;;;;;;;;26.00;33.06;100256.84;1088633;54;19943;-83
2022/05/17 11:51:29;;;;;;;;;;;;;;;25.81;33.15;100249.88;1088594;54;19942;-82
2022/05/17 11:52:33;;;;;;;;;;;;;;;26.03;32.90;100251.97;1088606;54;20041;-83
2022/05/17 11:53:45;;;;;;;;;;;;;;;26.14;31.89;100254.69;1088364;54;19951;-82
2022/05/17 11:54:47;;;;;;;;;;;;;;;26.21;32.61;100249.06;1088545;54;19935;-82
2022/05/17 11:56:06;;;;;;;;;;;;;;;26.19;32.28;100248.47;1088400;54;19943;-83
2022/05/17 11:57:08;;;;;;;;;;;;;;;26.15;32.00;100233.63;1088249;54;19967;-84
2022/05/17 11:58:12;;;;;;;;;;;;;;;26.27;31.96;100244.53;1088499;54;19943;-83
2022/05/17 12:00:32;;;;;;;;;;;;;;;26.16;31.74;100235.28;1088404;54;20020;-83
2022/05/17 12:01:47;;;;;;;;;;;;;;;26.21;31.25;100242.78;1088233;54;19939;-84
2022/05/17 12:02:53;;;;;;;;;;;;;;;26.26;31.52;100242.84;1088271;54;19970;-84
2022/05/17 12:06:03;;;;;;;;;;;;;;;26.33;31.92;100234.50;1088433;54;19943;-84
2022/05/17 12:07:22;;;;;;;;;;;;;;;26.35;31.54;100235.09;1088464;54;19942;-83
2022/05/17 12:08:30;;;;;;;;;;;;;;;26.24;31.79;100243.13;1088512;54;20014;-83
2022/05/17 12:10:37;;;;;;;;;;;;;;;26.10;32.54;100233.50;1088660;46;19938;-85
2022/05/17 12:14:55;;;;;;;;;;;;;;;26.28;32.20;100233.31;1088558;54;19927;-85
2022/05/17 12:15:58;;;;;;;;;;;;;;;26.02;32.28;100229.22;1088574;54;20014;-83
2022/05/17 12:19:20;;;;;;;;;;;;;;;25.61;32.95;100223.72;1088521;54;19934;-85
2022/05/17 12:21:33;;;;;;;;;;;;;;;25.79;32.58;100225.47;1088489;54;19942;-84
2022/05/17 12:23:42;;;;;;;;;;;;;;;25.92;32.44;100223.56;1088509;54;19949;-83
2022/05/17 12:24:52;;;;;;;;;;;;;;;25.91;32.58;100217.22;1088563;54;19954;-83
2022/05/17 12:25:58;;;;;;;;;;;;;;;26.03;32.62;100221.84;1092268;46;19967;-83
2022/05/17 12:27:07;;;;;;;;;;;;;;;26.04;32.52;100218.03;1088205;54;19927;-84
2022/05/17 12:28:12;;;;;;;;;;;;;;;26.10;32.81;100220.66;1088256;54;20657;-86
2022/05/17 12:31:49;;;;;;;;;;;;;;;25.78;32.94;100223.81;1088060;54;19935;-84
2022/05/17 12:32:50;;;;;;;;;;;;;;;25.96;32.74;100216.50;1088011;54;19949;-84
2022/05/17 12:33:55;;;;;;;;;;;;;;;26.08;32.61;100213.72;1088009;54;19943;-84
2022/05/17 12:34:58;;;;;;;;;;;;;;;26.11;32.17;100205.03;1088189;54;19950;-83
2022/05/17 12:36:17;;;;;;;;;;;;;;;26.21;32.11;100204.41;1088430;54;19942;-84
2022/05/17 12:37:18;;;;;;;;;;;;;;;26.01;32.68;100206.47;1090010;46;19942;-82
2022/05/17 12:43:38;;;;;;;;;;;;;;;25.88;33.64;100206.78;1088325;54;20009;-81
2022/05/17 12:44:40;;;;;;;;;;;;;;;25.93;33.25;100206.03;1088327;54;19922;-84
2022/05/17 12:46:48;;;;;;;;;;;;;;;26.15;32.88;100201.56;1087759;54;19967;-83
2022/05/17 12:49:00;;;;;;;;;;;;;;;26.04;32.95;100207.06;1088708;54;19938;-84
2022/05/17 12:56:43;;;;;;;;;;;;;;;26.31;32.40;100189.00;1088242;54;19938;-82
2022/05/17 12:58:53;;;;;;;;;;;;;;;26.16;32.41;100191.47;1087762;54;20796;-82
2022/05/17 13:01:01;;;;;;;;;;;;;;;26.10;33.02;100182.31;1088364;54;19946;-82
2022/05/17 13:02:05;;;;;;;;;;;;;;;26.09;33.06;100182.53;1088261;54;19966;-80
2022/05/17 13:03:17;;;;;;;;;;;;;;;26.09;33.25;100180.66;1088369;54;19943;-84
2022/05/17 13:04:27;;;;;;;;;;;;;;;26.07;33.15;100180.03;1088365;54;19967;-81
2022/05/17 13:05:30;;;;;;;;;;;;;;;26.19;32.97;100182.72;1088088;54;19949;-82
2022/05/17 13:06:35;;;;;;;;;;;;;;;26.10;32.94;100176.84;1088421;54;19927;-83
2022/05/17 13:07:39;;;;;;;;;;;;;;;26.10;33.49;100181.47;1088283;54;19938;-87
2022/05/17 13:08:42;;;;;;;;;;;;;;;26.21;33.63;100172.38;1088426;54;19927;-83
2022/05/17 13:10:59;;;;;;;;;;;;;;;26.28;33.28;100181.25;1087958;54;19943;-84
2022/05/17 13:12:13;;;;;;;;;;;;;;;26.28;33.27;100173.03;1088240;54;19967;-82
2022/05/17 13:14:28;;;;;;;;;;;;;;;26.37;33.08;100178.97;1088278;54;19939;-80